createdAt,value
2019-02-02T00:01:10.061Z,28.53
2019-02-02T00:03:59.883Z,28.00
2019-02-02T00:06:42.522Z,30.67
2019-02-02T00:09:32.336Z,31.33
2019-02-02T00:12:14.415Z,31.43
2019-02-02T00:18:00.236Z,30.60
2019-02-02T00:23:53.657Z,27.30
2019-02-02T00:26:43.419Z,26.73
2019-02-02T00:29:33.369Z,25.03
2019-02-02T00:32:23.165Z,22.50
2019-02-02T00:35:13.051Z,22.73
2019-02-02T00:38:02.833Z,22.23
2019-02-02T00:41:04.409Z,23.87
2019-02-02T00:43:48.801Z,23.10
2019-02-02T00:46:38.519Z,22.03
2019-02-02T00:49:21.326Z,22.03
2019-02-02T00:52:11.147Z,21.37
2019-02-02T00:54:53.957Z,20.27
2019-02-02T00:57:53.133Z,23.20
2019-02-02T01:00:27.669Z,22.10
2019-02-02T01:03:17.380Z,21.60
2019-02-02T01:05:59.910Z,21.87
2019-02-02T01:08:49.868Z,22.53
2019-02-02T01:11:32.474Z,23.63
2019-02-02T01:14:22.167Z,25.87
2019-02-02T01:17:04.360Z,27.43
2019-02-02T01:19:54.070Z,28.23
2019-02-02T01:23:02.882Z,29.27
2019-02-02T01:25:46.752Z,26.10
2019-02-02T01:28:36.532Z,22.63
2019-02-02T01:31:26.366Z,24.07
2019-02-02T01:34:16.164Z,22.03
2019-02-02T01:37:05.931Z,22.57
2019-02-02T01:39:55.682Z,22.03
2019-02-02T01:42:45.412Z,22.30
2019-02-02T01:45:35.162Z,21.37
2019-02-02T01:48:17.386Z,22.50
2019-02-02T01:51:07.106Z,21.47
2019-02-02T01:53:49.713Z,20.90
2019-02-02T01:56:39.432Z,20.97
2019-02-02T01:59:21.491Z,20.80
2019-02-02T02:02:11.219Z,22.07
2019-02-02T02:04:53.358Z,21.23
2019-02-02T02:07:43.312Z,21.33
2019-02-02T02:10:25.902Z,23.10
2019-02-02T02:13:15.600Z,24.07
2019-02-02T02:16:05.315Z,21.40
2019-02-02T02:18:48.131Z,19.53
2019-02-02T02:21:37.905Z,19.57
2019-02-02T02:24:27.635Z,17.67
2019-02-02T02:27:17.681Z,18.23
2019-02-02T02:30:00.286Z,19.23
2019-02-02T02:32:50.027Z,19.47
2019-02-02T02:35:39.812Z,20.23
2019-02-02T02:38:29.574Z,20.63
2019-02-02T02:41:19.370Z,22.17
2019-02-02T02:44:01.599Z,30.07
2019-02-02T02:46:51.334Z,30.63
2019-02-02T02:49:33.570Z,42.17
2019-02-02T02:52:23.500Z,38.03
2019-02-02T02:55:26.227Z,29.37
2019-02-02T02:58:08.832Z,30.80
2019-02-02T03:00:39.521Z,33.80
2019-02-02T03:03:29.365Z,30.10
2019-02-02T03:06:11.287Z,37.27
2019-02-02T03:09:20.275Z,38.20
2019-02-02T03:12:29.113Z,44.43
2019-02-02T03:18:35.629Z,29.43
2019-02-02T03:21:25.378Z,30.07
2019-02-02T03:24:07.390Z,29.83
2019-02-02T03:26:57.133Z,28.50
2019-02-02T03:29:39.462Z,28.17
2019-02-02T03:32:29.214Z,28.03
2019-02-02T03:35:40.207Z,28.23
2019-02-02T03:38:23.147Z,29.63
2019-02-02T03:44:10.442Z,22.23
2019-02-02T03:46:53.418Z,21.37
2019-02-02T03:49:43.179Z,22.20
2019-02-02T03:52:32.925Z,22.43
2019-02-02T03:55:22.707Z,22.47
2019-02-02T03:58:12.511Z,26.33
2019-02-02T04:01:02.301Z,32.73
2019-02-02T04:04:11.169Z,25.87
2019-02-02T04:10:05.295Z,26.07
2019-02-02T04:12:47.408Z,46.13
2019-02-02T04:15:37.229Z,37.33
2019-02-02T04:18:46.061Z,67.23
2019-02-02T04:21:28.077Z,103.83
2019-02-02T04:24:17.863Z,81.70
2019-02-02T04:27:08.739Z,70.13
2019-02-02T04:29:58.661Z,40.23
2019-02-02T04:32:48.475Z,41.27
2019-02-02T04:35:38.284Z,41.53
2019-02-02T04:38:28.398Z,36.17
2019-02-02T04:41:18.192Z,35.03
2019-02-02T04:44:07.948Z,39.57
2019-02-02T04:46:57.732Z,37.20
2019-02-02T04:49:47.628Z,32.17
2019-02-02T04:52:37.419Z,32.30
2019-02-02T04:55:27.243Z,31.77
2019-02-02T05:01:13.744Z,28.63
2019-02-02T05:04:03.484Z,27.80
2019-02-02T05:06:45.894Z,29.70
2019-02-02T05:09:35.644Z,48.87
2019-02-02T05:12:18.218Z,57.30
2019-02-02T05:15:08.291Z,32.00
2019-02-02T05:17:50.657Z,29.67
2019-02-02T05:20:40.356Z,30.77
2019-02-02T05:23:22.633Z,29.00
2019-02-02T05:26:12.383Z,39.90
2019-02-02T05:28:55.772Z,32.00
2019-02-02T05:31:45.542Z,28.60
2019-02-02T05:34:28.001Z,26.70
2019-02-02T05:37:17.854Z,32.43
2019-02-02T05:40:00.517Z,28.40
2019-02-02T05:43:09.173Z,27.13
2019-02-02T05:45:52.078Z,30.93
2019-02-02T05:49:00.919Z,27.53
2019-02-02T05:51:43.473Z,28.63
2019-02-02T05:54:33.146Z,33.53
2019-02-02T05:57:15.767Z,36.87
2019-02-02T06:00:08.348Z,32.43
2019-02-02T06:02:50.972Z,33.80
2019-02-02T06:05:40.730Z,33.90
2019-02-02T06:08:23.396Z,29.83
2019-02-02T06:11:13.130Z,28.07
2019-02-02T06:13:55.012Z,27.90
2019-02-02T06:16:44.753Z,30.37
2019-02-02T06:19:34.465Z,26.63
2019-02-02T06:22:24.253Z,27.53
2019-02-02T06:25:14.060Z,26.57
2019-02-02T06:28:03.927Z,24.73
2019-02-02T06:30:53.702Z,26.97
2019-02-02T06:33:43.479Z,27.60
2019-02-02T06:36:33.884Z,25.27
2019-02-02T06:39:23.631Z,26.83
2019-02-02T06:42:13.346Z,25.97
2019-02-02T06:44:55.317Z,25.67
2019-02-02T06:50:39.466Z,23.23
2019-02-02T06:53:29.251Z,24.30
2019-02-02T06:56:38.137Z,23.50
2019-02-02T06:59:20.371Z,23.17
2019-02-02T07:02:10.111Z,22.13
2019-02-02T07:04:40.826Z,22.73
2019-02-02T07:07:30.577Z,23.23
2019-02-02T07:10:17.566Z,22.37
2019-02-02T07:13:26.340Z,23.33
2019-02-02T07:16:16.142Z,22.87
2019-02-02T07:19:05.894Z,25.47
2019-02-02T07:22:11.325Z,25.03
2019-02-02T07:24:53.886Z,25.30
2019-02-02T07:27:43.633Z,26.37
2019-02-02T07:30:29.126Z,24.10
2019-02-02T07:33:17.740Z,25.47
2019-02-02T07:36:07.450Z,25.37
2019-02-02T07:38:50.055Z,25.47
2019-02-02T07:41:41.202Z,24.30
2019-02-02T07:44:23.854Z,24.40
2019-02-02T07:47:13.664Z,23.60
2019-02-02T07:50:22.615Z,24.70
2019-02-02T07:53:05.402Z,26.03
2019-02-02T07:55:55.220Z,24.37
2019-02-02T07:58:44.925Z,24.03
2019-02-02T08:01:34.698Z,25.77
2019-02-02T08:04:24.413Z,24.30
2019-02-02T08:07:06.933Z,25.57
2019-02-02T08:09:56.686Z,26.03
2019-02-02T08:12:39.160Z,24.77
2019-02-02T08:15:30.755Z,25.00
2019-02-02T08:18:13.348Z,25.03
2019-02-02T08:21:03.152Z,24.13
2019-02-02T08:23:45.412Z,26.50
2019-02-02T08:26:35.147Z,26.50
2019-02-02T08:29:17.921Z,25.67
2019-02-02T08:35:11.319Z,26.50
2019-02-02T08:38:01.074Z,28.97
2019-02-02T08:40:43.207Z,26.57
2019-02-02T08:43:32.975Z,27.27
2019-02-02T08:46:15.687Z,36.17
2019-02-02T08:49:05.593Z,28.17
2019-02-02T08:51:47.943Z,28.90
2019-02-02T08:54:37.644Z,28.93
2019-02-02T08:57:19.920Z,27.03
2019-02-02T09:00:13.077Z,26.47
2019-02-02T09:02:55.348Z,25.57
2019-02-02T09:05:45.081Z,28.00
2019-02-02T09:08:27.000Z,28.67
2019-02-02T09:11:16.769Z,28.50
2019-02-02T09:13:59.039Z,31.50
2019-02-02T09:16:48.856Z,31.67
2019-02-02T09:19:38.718Z,31.40
2019-02-02T09:22:28.527Z,28.93
2019-02-02T09:25:18.777Z,30.27
2019-02-02T09:28:08.504Z,29.47
2019-02-02T09:30:58.195Z,29.37
2019-02-02T09:33:47.943Z,29.77
2019-02-02T09:36:30.178Z,33.63
2019-02-02T09:39:19.920Z,29.97
2019-02-02T09:42:02.097Z,54.07
2019-02-02T09:44:51.860Z,42.97
2019-02-02T09:47:41.677Z,34.37
2019-02-02T09:50:31.630Z,37.63
2019-02-02T09:53:21.400Z,59.13
2019-02-02T09:56:11.239Z,49.40
2019-02-02T09:59:01.187Z,40.13
2019-02-02T10:01:50.927Z,37.77
2019-02-02T10:04:40.672Z,51.93
2019-02-02T10:07:30.506Z,43.77
2019-02-02T10:10:22.337Z,43.87
2019-02-02T10:13:12.093Z,47.33
2019-02-02T10:16:01.864Z,40.50
2019-02-02T10:18:51.676Z,47.07
2019-02-02T10:21:41.479Z,56.77
2019-02-02T10:24:31.207Z,61.30
2019-02-02T10:27:20.962Z,74.17
2019-02-02T10:30:30.757Z,47.23
2019-02-02T10:33:20.552Z,62.80
2019-02-02T10:36:03.484Z,64.37
2019-02-02T10:38:53.385Z,71.90
2019-02-02T10:41:43.229Z,74.20
2019-02-02T10:44:33.060Z,82.20
2019-02-02T10:47:22.906Z,83.17
2019-02-02T10:50:13.702Z,69.37
2019-02-02T10:53:03.448Z,61.83
2019-02-02T10:56:06.327Z,56.20
2019-02-02T10:58:48.672Z,55.83
2019-02-02T11:01:38.386Z,64.00
2019-02-02T11:04:21.606Z,57.67
2019-02-02T11:07:11.448Z,48.70
2019-02-02T11:09:53.405Z,59.83
2019-02-02T11:12:43.249Z,49.90
2019-02-02T11:15:25.730Z,76.17
2019-02-02T11:18:15.520Z,67.33
2019-02-02T11:20:58.106Z,49.30
2019-02-02T11:23:47.919Z,52.97
2019-02-02T11:26:37.719Z,59.27
2019-02-02T11:29:27.528Z,50.27
2019-02-02T11:32:17.296Z,49.17
2019-02-02T11:35:08.418Z,57.33
2019-02-02T11:37:58.324Z,58.73
2019-02-02T11:40:48.094Z,65.73
2019-02-02T11:43:37.820Z,65.77
2019-02-02T11:46:20.019Z,56.77
2019-02-02T11:49:09.799Z,64.33
2019-02-02T11:51:59.559Z,54.97
2019-02-02T11:55:02.625Z,48.73
2019-02-02T11:57:44.937Z,75.13
2019-02-02T12:00:53.684Z,53.97
2019-02-02T12:03:35.969Z,57.27
2019-02-02T12:06:25.706Z,51.20
2019-02-02T12:09:08.543Z,51.87
2019-02-02T12:11:58.282Z,48.53
2019-02-02T12:14:40.687Z,49.00
2019-02-02T12:17:30.494Z,45.13
2019-02-02T12:20:13.387Z,43.57
2019-02-02T12:23:03.293Z,40.87
2019-02-02T12:25:47.101Z,39.07
2019-02-02T12:28:36.823Z,37.83
2019-02-02T12:31:19.087Z,36.13
2019-02-02T12:34:08.811Z,34.43
2019-02-02T12:36:50.831Z,33.80
2019-02-02T12:39:40.611Z,34.03
2019-02-02T12:42:23.441Z,30.97
2019-02-02T12:45:16.164Z,31.03
2019-02-02T12:47:58.847Z,33.60
2019-02-02T12:50:48.580Z,33.20
2019-02-02T12:53:31.367Z,31.50
2019-02-02T12:56:21.108Z,30.83
2019-02-02T12:59:03.498Z,32.10
2019-02-02T13:01:53.315Z,31.50
2019-02-02T13:04:43.112Z,30.97
2019-02-02T13:07:32.833Z,28.90
2019-02-02T13:10:16.840Z,26.93
2019-02-02T13:13:06.731Z,27.50
2019-02-02T13:15:56.447Z,24.90
2019-02-02T13:18:40.519Z,26.57
2019-02-02T13:21:30.436Z,25.20
2019-02-02T13:24:20.209Z,26.73
2019-02-02T13:27:10.031Z,27.33
2019-02-02T13:29:59.745Z,31.03
2019-02-02T13:32:49.454Z,27.53
2019-02-02T13:35:35.202Z,30.33
2019-02-02T13:38:37.668Z,28.03
2019-02-02T13:41:08.417Z,26.60
2019-02-02T13:43:58.142Z,27.40
2019-02-02T13:46:41.124Z,25.37
2019-02-02T13:49:30.826Z,25.10
2019-02-02T13:52:13.687Z,24.13
2019-02-02T13:55:03.526Z,24.57
2019-02-02T13:57:46.113Z,24.67
2019-02-02T14:00:35.868Z,25.63
2019-02-02T14:03:18.552Z,25.17
2019-02-02T14:06:08.292Z,25.77
2019-02-02T14:08:52.216Z,25.10
2019-02-02T14:11:41.917Z,26.73
2019-02-02T14:14:24.202Z,25.27
2019-02-02T14:17:13.970Z,27.50
2019-02-02T14:19:56.497Z,27.07
2019-02-02T14:22:46.252Z,23.13
2019-02-02T14:25:32.622Z,25.07
2019-02-02T14:28:28.517Z,24.77
2019-02-02T14:31:06.926Z,28.97
2019-02-02T14:33:56.857Z,27.00
2019-02-02T14:36:39.011Z,28.17
2019-02-02T14:39:28.982Z,27.87
2019-02-02T14:42:11.072Z,26.30
2019-02-02T14:45:00.810Z,25.90
2019-02-02T14:47:43.191Z,25.77
2019-02-02T14:50:32.959Z,25.40
2019-02-02T14:53:16.656Z,26.47
2019-02-02T14:56:06.490Z,24.20
2019-02-02T14:58:48.804Z,24.17
2019-02-02T15:01:38.596Z,23.93
2019-02-02T15:04:20.923Z,24.00
2019-02-02T15:10:12.452Z,26.83
2019-02-02T15:13:02.159Z,28.07
2019-02-02T15:15:44.553Z,25.83
2019-02-02T15:18:34.264Z,28.30
2019-02-02T15:21:16.762Z,25.07
2019-02-02T15:24:06.523Z,26.20
2019-02-02T15:26:48.855Z,26.20
2019-02-02T15:29:38.590Z,25.47
2019-02-02T15:32:21.012Z,25.67
2019-02-02T15:35:10.760Z,25.60
2019-02-02T15:37:52.945Z,25.50
2019-02-02T15:40:42.716Z,25.83
2019-02-02T15:43:32.496Z,24.40
2019-02-02T15:46:22.273Z,25.17
2019-02-02T15:49:12.265Z,24.20
2019-02-02T15:51:54.129Z,24.70
2019-02-02T15:54:43.837Z,24.13
2019-02-02T15:57:26.024Z,23.60
2019-02-02T16:00:36.101Z,24.13
2019-02-02T16:06:48.331Z,22.63
2019-02-02T16:09:32.750Z,23.30
2019-02-02T16:12:22.593Z,22.73
2019-02-02T16:18:10.045Z,22.17
2019-02-02T16:20:59.909Z,21.20
2019-02-02T16:23:43.118Z,21.90
2019-02-02T16:26:32.854Z,22.77
2019-02-02T16:29:15.143Z,23.43
2019-02-02T16:32:04.867Z,23.10
2019-02-02T16:34:48.506Z,22.40
2019-02-02T16:43:58.924Z,22.73
2019-02-02T16:46:48.669Z,24.03
2019-02-02T16:49:32.096Z,24.20
2019-02-02T16:52:21.883Z,23.53
2019-02-02T16:55:05.315Z,24.53
2019-02-02T16:57:55.050Z,26.47
2019-02-02T17:00:38.757Z,27.07
2019-02-02T17:03:28.554Z,27.07
2019-02-02T17:06:11.479Z,26.40
2019-02-02T17:09:01.255Z,27.33
2019-02-02T17:11:43.491Z,26.00
2019-02-02T17:14:33.221Z,25.30
2019-02-02T17:17:15.559Z,31.13
2019-02-02T17:23:21.619Z,28.47
2019-02-02T17:26:04.043Z,26.63
2019-02-02T17:28:53.869Z,27.63
2019-02-02T17:31:43.871Z,28.70
2019-02-02T17:34:33.770Z,28.80
2019-02-02T17:37:23.543Z,29.77
2019-02-02T17:40:18.333Z,28.33
2019-02-02T17:43:08.148Z,27.27
2019-02-02T17:45:58.009Z,27.77
2019-02-02T17:49:00.784Z,26.10
2019-02-02T17:51:44.513Z,26.03
2019-02-02T17:54:34.298Z,27.07
2019-02-02T17:57:16.938Z,27.23
2019-02-02T18:00:09.833Z,28.20
2019-02-02T18:02:52.743Z,27.20
2019-02-02T18:05:42.652Z,26.87
2019-02-02T18:08:32.453Z,26.10
2019-02-02T18:11:22.281Z,28.10
2019-02-02T18:14:12.057Z,27.07
2019-02-02T18:17:01.820Z,26.87
2019-02-02T18:19:51.635Z,26.70
2019-02-02T18:22:34.312Z,24.77
2019-02-02T18:25:43.121Z,26.40
2019-02-02T18:28:25.605Z,25.43
2019-02-02T18:31:15.421Z,26.97
2019-02-02T18:33:57.779Z,27.63
2019-02-02T18:36:47.558Z,27.10
2019-02-02T18:39:37.355Z,27.67
2019-02-02T18:42:27.147Z,28.93
2019-02-02T18:45:21.748Z,28.80
2019-02-02T18:51:14.671Z,30.20
2019-02-02T18:53:57.310Z,25.77
2019-02-02T18:56:47.134Z,34.73
2019-02-02T18:59:36.967Z,29.47
2019-02-02T19:02:26.737Z,27.83
2019-02-02T19:05:16.654Z,27.50
2019-02-02T19:07:58.601Z,27.53
2019-02-02T19:10:48.446Z,26.37
2019-02-02T19:13:38.274Z,25.30
2019-02-02T19:16:28.060Z,26.97
2019-02-02T19:19:17.860Z,27.20
2019-02-02T19:22:07.641Z,26.47
2019-02-02T19:24:57.552Z,76.37
2019-02-02T19:27:47.456Z,29.43
2019-02-02T19:30:37.246Z,27.43
2019-02-02T19:33:27.033Z,28.40
2019-02-02T19:36:16.924Z,28.37
2019-02-02T19:39:08.821Z,27.90
2019-02-02T19:41:58.620Z,29.67
2019-02-02T19:44:48.374Z,28.57
2019-02-02T19:47:38.128Z,27.67
2019-02-02T19:50:27.880Z,28.80
2019-02-02T19:53:10.000Z,27.70
2019-02-02T19:59:03.468Z,28.87
2019-02-02T20:01:47.429Z,28.70
2019-02-02T20:04:37.312Z,27.30
2019-02-02T20:10:23.382Z,27.80
2019-02-02T20:13:05.565Z,28.90
2019-02-02T20:15:55.355Z,30.63
2019-02-02T20:18:45.173Z,30.23
2019-02-02T20:21:34.984Z,32.63
2019-02-02T20:24:24.777Z,34.90
2019-02-02T20:27:14.497Z,33.90
2019-02-02T20:30:16.600Z,29.30
2019-02-02T20:32:59.161Z,29.33
2019-02-02T20:35:48.918Z,28.80
2019-02-02T20:38:40.201Z,30.83
2019-02-02T20:41:22.602Z,31.90
2019-02-02T20:44:12.354Z,32.63
2019-02-02T20:47:03.179Z,32.30
2019-02-02T20:49:46.079Z,30.33
2019-02-02T20:52:46.596Z,27.37
2019-02-02T20:55:20.987Z,25.40
2019-02-02T20:58:11.182Z,25.37
2019-02-02T21:00:53.545Z,23.93
2019-02-02T21:03:43.325Z,29.03
2019-02-02T21:06:26.031Z,26.27
2019-02-02T21:09:15.839Z,27.17
2019-02-02T21:11:58.845Z,27.23
2019-02-02T21:14:48.610Z,31.03
2019-02-02T21:17:31.053Z,27.00
2019-02-02T21:20:14.594Z,24.87
2019-02-02T21:23:04.372Z,26.17
2019-02-02T21:25:54.381Z,24.90
2019-02-02T21:28:36.953Z,23.23
2019-02-02T21:31:26.955Z,26.30
2019-02-02T21:34:17.017Z,21.83
2019-02-02T21:37:06.993Z,21.30
2019-02-02T21:39:57.081Z,27.90
2019-02-02T21:42:46.839Z,18.50
2019-02-02T21:45:36.653Z,21.13
2019-02-02T21:48:26.454Z,19.20
2019-02-02T21:51:16.225Z,20.53
2019-02-02T21:54:06.127Z,20.13
2019-02-02T21:56:55.937Z,21.13
2019-02-02T21:59:45.835Z,22.47
2019-02-02T22:02:35.620Z,21.13
2019-02-02T22:05:25.352Z,21.40
2019-02-02T22:07:56.018Z,22.83
2019-02-02T22:10:26.671Z,24.47
2019-02-02T22:13:25.972Z,25.97
2019-02-02T22:16:15.794Z,25.87
2019-02-02T22:19:05.582Z,24.90
2019-02-02T22:21:55.362Z,24.63
2019-02-02T22:24:37.795Z,23.90
2019-02-02T22:27:27.562Z,24.40
2019-02-02T22:30:13.650Z,25.77
2019-02-02T22:33:03.400Z,24.17
2019-02-02T22:35:45.920Z,24.83
2019-02-02T22:38:28.636Z,25.77
2019-02-02T22:41:18.477Z,25.73
2019-02-02T22:44:08.373Z,26.57
2019-02-02T22:46:58.152Z,29.33
2019-02-02T22:49:47.977Z,29.40
2019-02-02T22:52:37.810Z,30.60
2019-02-02T22:58:35.854Z,24.20
2019-02-02T23:01:27.220Z,29.87
2019-02-02T23:04:12.266Z,29.03
2019-02-02T23:07:23.748Z,27.60
2019-02-02T23:10:51.704Z,26.23
2019-02-02T23:14:19.613Z,26.27
2019-02-02T23:17:09.389Z,25.27
2019-02-02T23:20:00.477Z,32.87
2019-02-02T23:22:43.450Z,23.77
2019-02-02T23:25:25.665Z,23.80
2019-02-02T23:28:15.405Z,24.47
2019-02-02T23:31:05.210Z,23.37
2019-02-02T23:33:55.002Z,21.53
2019-02-02T23:39:48.398Z,21.33
2019-02-02T23:42:30.880Z,22.67
2019-02-02T23:48:21.467Z,20.90
2019-02-02T23:54:14.350Z,20.20
2019-02-02T23:57:04.101Z,20.63
2019-02-02T23:59:47.686Z,21.17
